Weather History for Mackinac Island, MI

Change the Weather History Date:

Wednesday, May 22, 2013

  Actual Average Record
Temperature  
Mean Temperature 54 °F -  
Max Temperature 56 °F 55 °F 75 °F (1981)
Min Temperature 52 °F 41 °F 32 °F (1976)
Degree Days  
Heating Degree Days 11    
Growing Degree Days 4 (Base 50)    
Moisture  
Dew Point 53 °F    
Average Humidity 96    
Maximum Humidity 97    
Minimum Humidity 95    
Precipitation  
Precipitation 0.32 in - - ()
Sea Level Pressure  
Sea Level Pressure 29.72 in    
Wind  
Wind Speed 8 mph (ENE)    
Max Wind Speed 15 mph    
Max Gust Speed 22 mph    
Visibility 3 miles    
Events Fog , Rain    
Averages and records for this station are not official NWS values.
T = Trace of Precipitation, MM = Missing Value Source: NWS Daily Summary

Daily Weather History Graph

Daily Weather History Graph

Search for Another Location

Airport:

Trip Planner

Search our weather history database for the weather conditions in past years. The results will help you decide how hot, cold, wet, or windy it might be!

Date:

Astronomy

May. 22, 2013 Rise Set
Actual Time 5:59 AM EDT 9:11 PM EDT
Civil Twilight 5:23 AM EDT 9:48 PM EDT
Nautical Twilight 4:36 AM EDT 10:34 PM EDT
Astronomical Twilight 3:39 AM EDT 11:33 PM EDT
Moon 6:26 PM EDT (5/22) 4:11 AM EDT (5/22)
Length of Visible Light 16h 24m
Length of Day
15h 12m
Waxing Gibbous, 91% of the Moon is Illuminated
May 22
Waxing Gibbous
May 25
Full
May 31
Last Quarter
Jun 8
New
Jun 16
First Quarter

Hourly Weather History & Observations

Time (EDT) Temp. Dew Point Humidity Pressure Visibility Wind Dir Wind Speed Gust Speed Precip Events Conditions
12:14 AM 55.2 °F 54.0 °F 96% 29.72 in 5.0 mi East 10.4 mph 18.4 mph N/A   Overcast
12:34 AM 55.0 °F 54.0 °F 96% 29.72 in 4.0 mi East 10.4 mph 17.3 mph N/A   Overcast
12:55 AM 54.9 °F 53.8 °F 96% 29.72 in 3.0 mi East 11.5 mph 20.7 mph N/A   Overcast
1:14 AM 55.6 °F 54.5 °F 96% 29.71 in 4.0 mi East 13.8 mph 21.9 mph N/A   Overcast
1:34 AM 55.0 °F 54.0 °F 96% 29.70 in 1.8 mi East 11.5 mph 18.4 mph N/A   Overcast
1:55 AM 55.4 °F 54.1 °F 96% 29.72 in 1.2 mi East 9.2 mph 17.3 mph N/A   Overcast
2:14 AM 55.4 °F 54.1 °F 96% 29.70 in 1.2 mi East 10.4 mph - N/A   Overcast
2:34 AM 55.4 °F 54.1 °F 96% 29.71 in 2.5 mi East 11.5 mph 17.3 mph N/A   Overcast
2:55 AM 54.9 °F 53.8 °F 96% 29.71 in 0.5 mi ESE 5.8 mph 16.1 mph N/A Fog Fog
3:14 AM 54.9 °F 53.8 °F 96% 29.70 in 0.5 mi East 6.9 mph - N/A Fog Fog
3:34 AM 54.5 °F 53.2 °F 96% 29.70 in 0.5 mi ESE 8.1 mph 16.1 mph N/A Fog Fog
3:55 AM 53.8 °F 52.7 °F 96% 29.72 in 0.5 mi East 5.8 mph - N/A Fog Fog
4:14 AM 54.1 °F 53.1 °F 96% 29.71 in 0.5 mi ESE 6.9 mph - N/A Fog Fog
4:34 AM 54.5 °F 53.2 °F 96% 29.71 in 0.5 mi ESE 4.6 mph - N/A Fog Fog
4:55 AM 54.1 °F 53.1 °F 96% 29.72 in 0.5 mi ESE 8.1 mph - N/A Fog Fog
5:14 AM 54.5 °F 53.2 °F 96% 29.71 in 0.8 mi ESE 4.6 mph - N/A   Overcast
5:35 AM 54.3 °F 53.2 °F 96% 29.70 in 1.0 mi ESE 10.4 mph - N/A   Overcast
5:54 AM 54.1 °F 53.1 °F 96% 29.70 in 0.8 mi East 5.8 mph - N/A   Overcast
6:14 AM 53.6 °F 52.3 °F 95% 29.70 in 0.2 mi East 4.6 mph - N/A Fog Fog
6:35 AM 52.7 °F 51.8 °F 97% 29.71 in 0.5 mi East 4.6 mph - N/A Fog Fog
6:54 AM 52.3 °F 51.4 °F 97% 29.71 in 0.2 mi East 4.6 mph - N/A Fog Fog
7:14 AM 52.3 °F 51.4 °F 97% 29.71 in 0.5 mi East 6.9 mph - N/A Fog Fog
7:35 AM 52.7 °F 51.8 °F 97% 29.71 in 0.2 mi East 6.9 mph - N/A Fog Fog
7:54 AM 53.2 °F 52.3 °F 97% 29.72 in 0.5 mi East 3.5 mph - N/A Fog Fog
8:14 AM 53.6 °F 52.7 °F 97% 29.72 in 0.2 mi Calm Calm - N/A Fog Fog
8:35 AM 53.8 °F 52.9 °F 97% 29.73 in 0.2 mi ESE 4.6 mph - N/A Fog Fog
8:54 AM 54.0 °F 53.1 °F 97% 29.73 in 0.2 mi East 5.8 mph - N/A Fog Fog
9:14 AM 54.5 °F 53.6 °F 97% 29.72 in 0.2 mi East 9.2 mph - N/A Fog Fog
9:35 AM 54.0 °F 53.1 °F 97% 29.73 in 0.2 mi East 5.8 mph - N/A Fog Fog
9:54 AM 53.1 °F 52.2 °F 97% 29.72 in 0.2 mi East 6.9 mph - N/A Fog Fog
10:14 AM 52.9 °F 52.0 °F 97% 29.72 in 0.2 mi ENE 4.6 mph - N/A Fog Fog
10:35 AM 52.9 °F 52.0 °F 97% 29.72 in 0.2 mi East 4.6 mph - N/A Fog Fog
10:54 AM 53.1 °F 52.2 °F 97% 29.72 in 0.2 mi East 5.8 mph - N/A Fog Fog
11:14 AM 53.6 °F 52.7 °F 97% 29.72 in 0.2 mi East 6.9 mph - N/A Fog Fog
11:35 AM 53.6 °F 52.7 °F 97% 29.72 in 0.2 mi East 8.1 mph - N/A Fog Fog
11:54 AM 54.0 °F 53.1 °F 97% 29.72 in 0.2 mi East 8.1 mph - N/A Fog Fog
12:14 PM 54.1 °F 53.2 °F 97% 29.72 in 0.2 mi East 6.9 mph - N/A Fog Fog
12:35 PM 55.4 °F 54.3 °F 96% 29.72 in 0.2 mi ENE 8.1 mph - N/A Fog Fog
12:54 PM 55.4 °F 54.1 °F 96% 29.72 in 0.2 mi ENE 5.8 mph - N/A Fog Fog
1:14 PM 55.4 °F 54.5 °F 97% 29.72 in 0.2 mi ENE 9.2 mph - N/A Fog Fog
1:35 PM 55.8 °F 54.9 °F 97% 29.72 in 0.5 mi East 6.9 mph - N/A Fog Fog
1:54 PM 56.1 °F 55.2 °F 97% 29.72 in 1.5 mi East 4.6 mph - N/A   Overcast
2:15 PM 55.9 °F 55.0 °F 97% 29.72 in 2.5 mi ENE 5.8 mph - N/A   Overcast
2:34 PM 56.3 °F 55.2 °F 96% 29.72 in 2.0 mi ENE 9.2 mph - N/A   Overcast
2:54 PM 55.8 °F 54.7 °F 96% 29.70 in 1.0 mi ENE 8.1 mph - N/A   Overcast
3:14 PM 55.6 °F 54.5 °F 96% 29.70 in 1.5 mi ENE 8.1 mph - N/A   Overcast
3:34 PM 55.9 °F 54.9 °F 96% 29.70 in 5.0 mi East 4.6 mph - N/A   Overcast
3:54 PM 55.8 °F 54.7 °F 96% 29.71 in 7.0 mi ENE 6.9 mph - N/A   Overcast
4:15 PM 55.9 °F 54.9 °F 96% 29.70 in 7.0 mi NE 9.2 mph - N/A   Overcast
4:34 PM 55.8 °F 54.5 °F 96% 29.70 in 7.0 mi NE 6.9 mph - N/A   Overcast
4:54 PM 55.4 °F 54.1 °F 96% 29.70 in 4.0 mi NE 5.8 mph - N/A Rain Light Rain
5:14 PM 55.0 °F 53.8 °F 96% 29.70 in 2.5 mi NE 10.4 mph - N/A Rain Light Rain
5:34 PM 55.4 °F 54.0 °F 95% 29.71 in 2.5 mi NE 11.5 mph - N/A Rain Light Rain
5:55 PM 55.0 °F 53.8 °F 96% 29.72 in 3.0 mi NE 10.4 mph 16.1 mph 0.01 in Rain Light Rain
6:14 PM 54.5 °F 53.2 °F 96% 29.71 in 10.0 mi NE 15.0 mph - N/A Rain Light Rain
6:34 PM 54.0 °F 52.7 °F 95% 29.71 in 10.0 mi NE 13.8 mph - N/A Rain Light Rain
6:55 PM 53.1 °F 51.8 °F 95% 29.72 in 10.0 mi NE 11.5 mph 17.3 mph N/A Rain Light Rain
7:14 PM 53.6 °F 52.2 °F 95% 29.72 in 10.0 mi NE 11.5 mph - N/A Rain Light Rain
7:34 PM 53.6 °F 52.2 °F 95% 29.72 in 10.0 mi NE 9.2 mph - N/A   Overcast
7:55 PM 53.6 °F 52.2 °F 95% 29.74 in 5.0 mi NE 4.6 mph - N/A Rain Light Rain
8:14 PM 53.4 °F 52.2 °F 95% 29.74 in 2.5 mi NE 11.5 mph - 0.04 in Rain Light Rain
8:34 PM 53.1 °F 52.0 °F 96% 29.74 in 2.0 mi NE 11.5 mph - 0.14 in   Overcast
8:55 PM 53.2 °F 52.2 °F 96% 29.75 in 4.0 mi NE 8.1 mph - 0.15 in Rain Light Rain
9:14 PM 53.6 °F 52.7 °F 97% 29.75 in 5.0 mi NNE 8.1 mph - 0.02 in Rain Rain
9:34 PM 53.6 °F 52.7 °F 97% 29.75 in 5.0 mi North 5.8 mph - 0.02 in Rain Light Rain
9:55 PM 54.0 °F 52.9 °F 96% 29.75 in 2.5 mi North 8.1 mph - 0.06 in   Overcast
10:14 PM 53.8 °F 52.7 °F 96% 29.76 in 4.0 mi North 9.2 mph - 0.03 in Rain Rain
10:34 PM 53.6 °F 52.3 °F 95% 29.76 in 5.0 mi NNE 11.5 mph - 0.05 in   Overcast
10:55 PM 52.9 °F 51.8 °F 96% 29.76 in 7.0 mi North 11.5 mph 20.7 mph 0.07 in Rain Light Rain
11:14 PM 52.9 °F 51.8 °F 96% 29.77 in 10.0 mi NNE 10.4 mph - N/A Rain Light Rain
11:34 PM 52.7 °F 51.8 °F 97% 29.77 in 5.0 mi North 11.5 mph 18.4 mph 0.02 in   Overcast
11:55 PM 52.7 °F 51.4 °F 95% 29.77 in 7.0 mi North 11.5 mph 16.1 mph 0.03 in Rain Rain